createdAt,value
2019-05-09T00:01:19.623Z,8.75
2019-05-09T00:06:15.947Z,9.17
2019-05-09T00:08:44.549Z,10.63
2019-05-09T00:11:14.474Z,10.33
2019-05-09T00:13:44.224Z,10.68
2019-05-09T00:18:44.110Z,8.83
2019-05-09T00:21:20.997Z,9.30
2019-05-09T00:23:50.183Z,10.50
2019-05-09T00:26:18.697Z,10.32
2019-05-09T00:28:48.936Z,10.00
2019-05-09T00:31:28.451Z,8.53
2019-05-09T00:33:59.289Z,9.33
2019-05-09T00:36:28.439Z,7.95
2019-05-09T00:38:57.015Z,8.88
2019-05-09T00:41:25.559Z,7.47
2019-05-09T00:43:56.014Z,6.75
2019-05-09T00:46:26.763Z,5.45
2019-05-09T00:48:57.248Z,5.50
2019-05-09T00:51:26.117Z,4.97
2019-05-09T00:53:54.626Z,5.17
2019-05-09T00:56:23.928Z,5.33
2019-05-09T00:58:53.709Z,4.47
2019-05-09T01:01:24.024Z,4.70
2019-05-09T01:03:53.854Z,3.67
2019-05-09T01:06:23.878Z,3.37
2019-05-09T01:08:53.796Z,3.43
2019-05-09T01:11:24.387Z,3.08
2019-05-09T01:13:54.429Z,3.40
2019-05-09T01:16:24.726Z,4.00
2019-05-09T01:18:54.638Z,3.70
2019-05-09T01:21:24.191Z,3.93
2019-05-09T01:23:54.000Z,3.80
2019-05-09T01:26:23.997Z,3.87
2019-05-09T01:28:54.099Z,3.20
2019-05-09T01:31:24.242Z,4.10
2019-05-09T01:34:00.889Z,4.83
2019-05-09T01:36:47.728Z,5.27
2019-05-09T01:39:16.987Z,4.53
2019-05-09T01:44:13.805Z,5.50
2019-05-09T01:49:13.842Z,5.22
2019-05-09T01:51:44.475Z,6.28
2019-05-09T01:54:14.902Z,7.03
2019-05-09T01:56:44.061Z,7.08
2019-05-09T02:01:43.422Z,7.22
2019-05-09T02:04:13.757Z,7.70
2019-05-09T02:06:44.044Z,7.60
2019-05-09T02:09:14.013Z,7.42
2019-05-09T02:11:45.707Z,6.83
2019-05-09T02:14:16.715Z,7.42
2019-05-09T02:16:53.854Z,7.53
2019-05-09T02:19:24.655Z,6.80
2019-05-09T02:21:53.871Z,6.85
2019-05-09T02:24:23.419Z,6.65
2019-05-09T02:26:53.318Z,6.67
2019-05-09T02:29:23.240Z,6.83
2019-05-09T02:31:54.621Z,7.37
2019-05-09T02:34:24.905Z,6.95
2019-05-09T02:36:54.344Z,7.92
2019-05-09T02:42:04.790Z,7.30
2019-05-09T02:44:21.543Z,8.53
2019-05-09T02:46:58.887Z,9.23
2019-05-09T02:49:28.834Z,9.60
2019-05-09T02:51:59.332Z,8.85
2019-05-09T02:54:29.792Z,9.55
2019-05-09T02:56:59.469Z,9.03
2019-05-09T03:02:02.237Z,9.38
2019-05-09T03:04:31.496Z,10.60
2019-05-09T03:09:28.953Z,10.55
2019-05-09T03:11:59.248Z,11.25
2019-05-09T03:14:29.072Z,12.05
2019-05-09T03:19:29.678Z,10.30
2019-05-09T03:22:00.086Z,12.25
2019-05-09T03:24:29.263Z,19.73
2019-05-09T03:29:29.982Z,12.63
2019-05-09T03:32:00.239Z,13.83
2019-05-09T03:34:30.338Z,14.38
2019-05-09T03:36:59.594Z,13.48
2019-05-09T03:41:57.379Z,15.85
2019-05-09T03:44:28.307Z,14.83
2019-05-09T03:47:02.366Z,15.03
2019-05-09T03:49:31.581Z,14.47
2019-05-09T03:54:28.386Z,15.33
2019-05-09T03:57:01.788Z,16.25
2019-05-09T03:59:30.969Z,15.63
2019-05-09T04:04:28.249Z,14.45
2019-05-09T04:06:58.199Z,15.83
2019-05-09T04:09:27.599Z,16.07
2019-05-09T04:14:28.066Z,19.62
2019-05-09T04:16:57.502Z,17.60
2019-05-09T04:19:27.609Z,15.55
2019-05-09T04:21:57.542Z,14.45
2019-05-09T04:24:28.533Z,16.85
2019-05-09T04:27:07.665Z,15.48
2019-05-09T04:29:37.413Z,16.07
2019-05-09T04:32:07.980Z,16.97
2019-05-09T04:34:38.043Z,17.15
2019-05-09T04:37:08.482Z,15.23
2019-05-09T04:39:40.611Z,16.35
2019-05-09T04:42:09.395Z,16.50
2019-05-09T04:44:43.162Z,15.20
2019-05-09T04:47:12.336Z,16.17
2019-05-09T04:52:10.405Z,17.50
2019-05-09T04:54:38.974Z,17.73
2019-05-09T04:57:08.030Z,18.45
2019-05-09T04:59:37.485Z,16.62
2019-05-09T05:02:14.142Z,17.98
2019-05-09T05:04:43.420Z,19.15
2019-05-09T05:07:13.190Z,22.62
2019-05-09T05:09:42.352Z,21.82
2019-05-09T05:14:39.166Z,20.30
2019-05-09T05:19:38.307Z,21.10
2019-05-09T05:22:11.758Z,24.15
2019-05-09T05:24:48.906Z,22.90
2019-05-09T05:27:18.822Z,24.30
2019-05-09T05:29:48.247Z,22.17
2019-05-09T05:35:03.472Z,19.70
2019-05-09T05:37:32.715Z,20.80
2019-05-09T05:42:29.322Z,20.75
2019-05-09T05:44:58.400Z,26.27
2019-05-09T05:47:35.220Z,25.90
2019-05-09T05:50:05.055Z,28.40
2019-05-09T05:52:34.211Z,31.10
2019-05-09T05:55:03.289Z,31.33
2019-05-09T05:57:32.392Z,31.37
2019-05-09T06:02:29.109Z,31.05
2019-05-09T06:07:28.507Z,33.45
2019-05-09T06:09:57.739Z,31.48
2019-05-09T06:12:27.639Z,31.57
2019-05-09T06:14:58.172Z,33.18
2019-05-09T06:17:28.628Z,31.95
2019-05-09T06:19:58.874Z,34.03
2019-05-09T06:22:28.327Z,31.25
2019-05-09T06:24:58.287Z,29.80
2019-05-09T06:27:27.674Z,33.78
2019-05-09T06:29:58.174Z,33.02
2019-05-09T06:32:27.958Z,34.83
2019-05-09T06:34:57.781Z,31.42
2019-05-09T06:37:27.791Z,33.30
2019-05-09T06:39:58.270Z,35.30
2019-05-09T06:42:28.678Z,31.57
2019-05-09T06:45:02.576Z,34.90
2019-05-09T06:47:33.452Z,33.40
2019-05-09T06:50:04.357Z,33.00
2019-05-09T06:52:33.551Z,33.90
2019-05-09T06:57:30.235Z,32.38
2019-05-09T07:02:34.724Z,33.25
2019-05-09T07:05:09.448Z,34.45
2019-05-09T07:07:40.196Z,33.90
2019-05-09T07:10:10.200Z,33.60
2019-05-09T07:12:39.310Z,32.08
2019-05-09T07:17:38.697Z,32.35
2019-05-09T07:20:08.631Z,29.40
2019-05-09T07:22:48.378Z,31.33
2019-05-09T07:25:19.209Z,29.97
2019-05-09T07:27:48.460Z,31.20
2019-05-09T07:30:20.862Z,27.93
2019-05-09T07:33:03.268Z,29.87
2019-05-09T07:35:32.430Z,33.10
2019-05-09T07:40:30.716Z,34.20
2019-05-09T07:43:00.103Z,34.13
2019-05-09T07:47:58.357Z,37.08
2019-05-09T07:50:27.895Z,34.40
2019-05-09T07:55:27.448Z,39.03
2019-05-09T07:57:59.095Z,36.50
2019-05-09T08:00:34.846Z,35.43
2019-05-09T08:03:04.162Z,35.95
2019-05-09T08:05:33.478Z,36.68
2019-05-09T08:08:03.702Z,39.25
2019-05-09T08:10:33.517Z,38.35
2019-05-09T08:13:02.700Z,35.73
2019-05-09T08:17:59.699Z,36.00
2019-05-09T08:23:01.361Z,30.80
2019-05-09T08:25:27.967Z,34.60
2019-05-09T08:27:58.800Z,35.48
2019-05-09T08:30:35.539Z,32.80
2019-05-09T08:32:59.972Z,33.53
2019-05-09T08:35:29.405Z,34.23
2019-05-09T08:40:28.375Z,33.63
2019-05-09T08:42:58.920Z,33.03
2019-05-09T08:45:31.251Z,35.27
2019-05-09T08:47:58.982Z,33.97
2019-05-09T08:50:29.886Z,30.30
2019-05-09T08:52:58.807Z,28.53
2019-05-09T08:55:27.952Z,30.43
2019-05-09T08:57:58.666Z,27.63
2019-05-09T09:00:28.187Z,27.63
2019-05-09T09:02:57.571Z,28.50
2019-05-09T09:05:28.890Z,28.10
2019-05-09T09:07:57.983Z,28.90
2019-05-09T09:10:29.069Z,28.00
2019-05-09T09:12:58.157Z,27.87
2019-05-09T09:15:53.647Z,26.80
2019-05-09T09:17:58.066Z,26.67
2019-05-09T09:20:28.858Z,26.70
2019-05-09T09:22:58.429Z,26.33
2019-05-09T09:25:28.650Z,25.80
2019-05-09T09:27:58.332Z,28.87
2019-05-09T09:30:29.199Z,26.33
2019-05-09T09:32:58.712Z,23.07
2019-05-09T09:35:28.031Z,25.43
2019-05-09T09:37:58.094Z,24.50
2019-05-09T09:40:27.962Z,24.90
2019-05-09T09:42:58.019Z,24.37
2019-05-09T09:45:28.057Z,23.80
2019-05-09T09:47:59.215Z,23.77
2019-05-09T09:50:28.296Z,22.83
2019-05-09T09:52:58.944Z,21.23
2019-05-09T09:55:28.031Z,20.67
2019-05-09T09:57:57.802Z,21.00
2019-05-09T10:00:38.250Z,21.80
2019-05-09T10:03:07.986Z,21.80
2019-05-09T10:05:38.067Z,21.20
2019-05-09T10:08:10.376Z,20.63
2019-05-09T10:10:38.176Z,18.47
2019-05-09T10:13:10.450Z,19.40
2019-05-09T10:15:42.077Z,17.20
2019-05-09T10:18:21.716Z,16.13
2019-05-09T10:20:55.168Z,15.67
2019-05-09T10:23:24.079Z,15.53
2019-05-09T10:25:52.958Z,13.83
2019-05-09T10:30:50.423Z,14.75
2019-05-09T10:35:47.905Z,12.82
2019-05-09T10:38:18.409Z,11.70
2019-05-09T10:40:48.470Z,11.50
2019-05-09T10:43:34.851Z,11.97
2019-05-09T10:46:14.989Z,11.50
2019-05-09T10:48:43.021Z,11.05
2019-05-09T10:51:11.815Z,11.53
2019-05-09T10:56:08.862Z,9.75
2019-05-09T10:58:37.839Z,9.30
2019-05-09T11:01:09.085Z,10.93
2019-05-09T11:03:37.731Z,8.40
2019-05-09T11:06:08.605Z,7.73
2019-05-09T11:08:38.057Z,6.03
2019-05-09T11:11:09.335Z,6.00
2019-05-09T11:13:39.022Z,4.73
2019-05-09T11:16:08.254Z,4.90
2019-05-09T11:18:37.108Z,5.50
2019-05-09T11:23:33.698Z,4.90
2019-05-09T11:28:30.291Z,4.03
2019-05-09T11:33:27.785Z,4.15
2019-05-09T11:35:58.070Z,3.80
2019-05-09T11:38:35.336Z,4.00
2019-05-09T11:40:58.126Z,3.83
2019-05-09T11:43:29.671Z,3.47
2019-05-09T11:45:58.652Z,3.97
2019-05-09T11:48:28.432Z,3.93
2019-05-09T11:50:57.993Z,4.50
2019-05-09T11:53:28.781Z,5.23
2019-05-09T11:55:58.002Z,5.00
2019-05-09T11:58:28.012Z,4.20
2019-05-09T12:00:57.075Z,4.33
2019-05-09T12:03:25.918Z,4.30
2019-05-09T12:05:54.852Z,3.90
2019-05-09T12:08:23.714Z,3.53
2019-05-09T12:10:52.583Z,4.57
2019-05-09T12:13:21.432Z,3.33
2019-05-09T12:18:17.973Z,3.17
2019-05-09T12:20:48.387Z,3.50
2019-05-09T12:23:19.861Z,2.70
2019-05-09T12:25:48.005Z,2.50
2019-05-09T12:28:18.914Z,2.50
2019-05-09T12:30:48.990Z,3.00
2019-05-09T12:33:18.757Z,2.10
2019-05-09T12:35:47.923Z,1.80
2019-05-09T12:38:18.028Z,2.20
2019-05-09T12:40:48.248Z,2.10
2019-05-09T12:43:18.521Z,1.90
2019-05-09T12:45:47.882Z,1.80
2019-05-09T12:48:19.208Z,1.70
2019-05-09T12:50:48.885Z,1.77
2019-05-09T12:53:18.894Z,1.80
2019-05-09T12:55:49.562Z,1.70
2019-05-09T12:58:27.849Z,1.77
2019-05-09T13:00:58.622Z,1.57
2019-05-09T13:03:28.823Z,2.10
2019-05-09T13:05:58.163Z,1.70
2019-05-09T13:08:27.843Z,1.50
2019-05-09T13:10:58.379Z,1.63
2019-05-09T13:13:30.236Z,1.63
2019-05-09T13:16:05.632Z,1.30
2019-05-09T13:18:52.080Z,1.40
2019-05-09T13:21:20.939Z,1.70
2019-05-09T13:23:52.255Z,1.50
2019-05-09T13:26:20.411Z,1.50
2019-05-09T13:28:49.241Z,1.70
2019-05-09T13:33:48.784Z,1.40
2019-05-09T13:36:18.940Z,1.40
2019-05-09T13:39:00.573Z,1.40
2019-05-09T13:41:18.450Z,1.63
2019-05-09T13:43:57.711Z,1.43
2019-05-09T13:46:18.088Z,1.23
2019-05-09T13:49:06.239Z,1.60
2019-05-09T13:51:18.516Z,1.43
2019-05-09T13:53:48.364Z,1.50
2019-05-09T13:56:17.972Z,1.30
2019-05-09T13:58:48.723Z,1.60
2019-05-09T14:01:17.718Z,1.50
2019-05-09T14:03:48.997Z,1.83
2019-05-09T14:06:17.216Z,2.07
2019-05-09T14:08:49.045Z,1.50
2019-05-09T14:11:19.071Z,1.50
2019-05-09T14:13:48.747Z,1.57
2019-05-09T14:16:22.091Z,1.50
2019-05-09T14:18:48.701Z,1.27
2019-05-09T14:21:21.570Z,1.70
2019-05-09T14:24:03.545Z,1.40
2019-05-09T14:26:18.803Z,1.77
2019-05-09T14:28:49.020Z,1.43
2019-05-09T14:31:18.844Z,1.60
2019-05-09T14:33:47.919Z,1.70
2019-05-09T14:36:16.785Z,1.40
2019-05-09T14:38:48.298Z,1.67
2019-05-09T14:41:16.283Z,1.60
2019-05-09T14:43:45.129Z,1.43
2019-05-09T14:46:13.994Z,1.37
2019-05-09T14:48:42.849Z,1.80
2019-05-09T14:51:11.706Z,1.53
2019-05-09T14:53:40.559Z,9.27
2019-05-09T14:56:09.395Z,2.30
2019-05-09T14:58:38.927Z,1.40
2019-05-09T15:01:08.620Z,1.63
2019-05-09T15:03:38.835Z,1.60
2019-05-09T15:06:07.995Z,1.57
2019-05-09T15:08:38.279Z,1.50
2019-05-09T15:11:09.772Z,2.20
2019-05-09T15:13:37.837Z,2.03
2019-05-09T15:16:08.706Z,1.70
2019-05-09T15:18:38.636Z,1.60
2019-05-09T15:21:08.050Z,1.60
2019-05-09T15:23:39.090Z,2.00
2019-05-09T15:26:07.773Z,1.50
2019-05-09T15:28:38.536Z,2.07
2019-05-09T15:31:08.875Z,2.00
2019-05-09T15:33:37.825Z,2.23
2019-05-09T15:36:09.025Z,2.03
2019-05-09T15:38:37.978Z,1.80
2019-05-09T15:41:12.025Z,1.97
2019-05-09T15:43:38.115Z,1.77
2019-05-09T15:46:14.794Z,8.20
2019-05-09T15:48:43.662Z,7.47
2019-05-09T15:51:12.470Z,15.60
2019-05-09T15:53:41.276Z,2.03
2019-05-09T15:56:10.138Z,1.60
2019-05-09T15:58:39.007Z,1.37
2019-05-09T16:01:08.325Z,1.40
2019-05-09T16:03:38.269Z,1.20
2019-05-09T16:06:09.052Z,1.40
2019-05-09T16:08:38.210Z,1.40
2019-05-09T16:11:08.735Z,1.57
2019-05-09T16:13:37.711Z,1.30
2019-05-09T16:16:08.814Z,1.30
2019-05-09T16:18:37.224Z,1.60
2019-05-09T16:21:08.413Z,1.50
2019-05-09T16:23:38.112Z,1.90
2019-05-09T16:26:07.901Z,1.60
2019-05-09T16:28:37.929Z,2.00
2019-05-09T16:31:07.005Z,1.70
2019-05-09T16:33:35.870Z,1.93
2019-05-09T16:36:04.803Z,2.00
2019-05-09T16:38:43.454Z,1.53
2019-05-09T16:41:04.244Z,1.43
2019-05-09T16:43:33.075Z,1.80
2019-05-09T16:46:01.879Z,2.63
2019-05-09T16:48:30.723Z,1.93
2019-05-09T16:51:03.154Z,1.70
2019-05-09T16:53:30.102Z,1.87
2019-05-09T16:55:59.024Z,1.90
2019-05-09T16:58:27.887Z,2.17
2019-05-09T17:00:56.737Z,2.10
2019-05-09T17:03:25.614Z,2.30
2019-05-09T17:05:54.462Z,2.10
2019-05-09T17:08:23.393Z,2.00
2019-05-09T17:10:52.252Z,1.93
2019-05-09T17:13:21.103Z,1.60
2019-05-09T17:15:50.058Z,1.77
2019-05-09T17:18:19.304Z,1.73
2019-05-09T17:20:52.579Z,1.40
2019-05-09T17:23:23.112Z,1.50
2019-05-09T17:25:52.109Z,1.50
2019-05-09T17:28:21.082Z,1.43
2019-05-09T17:30:49.888Z,1.43
2019-05-09T17:33:18.805Z,1.43
2019-05-09T17:35:48.400Z,1.50
2019-05-09T17:38:18.080Z,1.77
2019-05-09T17:40:48.553Z,1.70
2019-05-09T17:43:18.247Z,1.50
2019-05-09T17:45:47.903Z,1.40
2019-05-09T17:48:18.383Z,2.90
2019-05-09T17:50:47.550Z,2.20
2019-05-09T17:53:18.206Z,1.80
2019-05-09T17:55:47.734Z,1.30
2019-05-09T17:58:27.294Z,1.10
2019-05-09T18:00:48.630Z,1.40
2019-05-09T18:03:18.244Z,1.57
2019-05-09T18:05:48.563Z,1.63
2019-05-09T18:08:18.748Z,1.60
2019-05-09T18:10:48.554Z,1.43
2019-05-09T18:13:23.658Z,1.57
2019-05-09T18:15:48.437Z,1.50
2019-05-09T18:18:18.470Z,1.57
2019-05-09T18:20:47.576Z,1.90
2019-05-09T18:25:45.621Z,2.37
2019-05-09T18:30:42.299Z,1.70
2019-05-09T18:33:28.091Z,2.30
2019-05-09T18:35:57.634Z,1.83
2019-05-09T18:38:29.716Z,1.97
2019-05-09T18:40:58.649Z,1.90
2019-05-09T18:43:27.665Z,1.97
2019-05-09T18:45:57.696Z,1.87
2019-05-09T18:48:27.999Z,2.17
2019-05-09T18:50:56.948Z,2.30
2019-05-09T18:55:53.645Z,2.05
2019-05-09T18:58:22.494Z,2.07
2019-05-09T19:05:47.522Z,3.20
2019-05-09T19:10:44.217Z,2.27
2019-05-09T19:15:51.753Z,2.40
2019-05-09T19:18:22.267Z,2.90
2019-05-09T19:20:55.642Z,2.60
2019-05-09T19:23:24.437Z,2.30
2019-05-09T19:28:24.035Z,3.25
2019-05-09T19:30:51.717Z,2.77
2019-05-09T19:35:48.241Z,2.87
2019-05-09T19:40:44.920Z,3.08
2019-05-09T19:45:41.542Z,3.47
2019-05-09T19:50:37.783Z,4.63
2019-05-09T19:55:34.461Z,3.00
2019-05-09T20:00:31.204Z,3.92
2019-05-09T20:05:27.818Z,3.00
2019-05-09T20:10:26.137Z,3.27
2019-05-09T20:13:08.907Z,3.43
2019-05-09T20:15:37.776Z,3.33
2019-05-09T20:20:34.496Z,2.67
2019-05-09T20:25:31.147Z,2.83
2019-05-09T20:27:59.658Z,2.90
2019-05-09T20:30:28.521Z,4.03
2019-05-09T20:32:57.379Z,3.30
2019-05-09T20:37:54.233Z,3.27
2019-05-09T20:40:23.270Z,3.40
2019-05-09T20:42:52.249Z,3.27
2019-05-09T20:45:21.348Z,3.50
2019-05-09T20:47:50.329Z,3.33
2019-05-09T20:50:19.742Z,7.65
2019-05-09T20:52:48.794Z,3.90
2019-05-09T20:55:17.905Z,3.97
2019-05-09T20:57:46.896Z,4.10
2019-05-09T21:00:16.183Z,3.87
2019-05-09T21:02:45.232Z,4.00
2019-05-09T21:05:14.517Z,3.53
2019-05-09T21:07:43.586Z,3.70
2019-05-09T21:10:12.813Z,3.97
2019-05-09T21:12:41.865Z,3.80
2019-05-09T21:15:11.404Z,4.50
2019-05-09T21:17:40.454Z,4.40
2019-05-09T21:20:09.935Z,4.83
2019-05-09T21:22:38.967Z,3.73
2019-05-09T21:25:08.599Z,4.70
2019-05-09T21:27:37.715Z,3.70
2019-05-09T21:30:08.752Z,3.53
2019-05-09T21:32:37.818Z,3.97
2019-05-09T21:35:07.007Z,3.77
2019-05-09T21:37:35.886Z,3.37
2019-05-09T21:40:07.268Z,3.73
2019-05-09T21:42:36.333Z,4.00
2019-05-09T21:45:06.738Z,6.97
2019-05-09T21:47:35.588Z,8.40
2019-05-09T21:52:33.279Z,4.53
2019-05-09T21:55:02.106Z,4.65
2019-05-09T21:57:30.966Z,4.53
2019-05-09T22:00:01.739Z,4.43
2019-05-09T22:04:58.500Z,4.58
2019-05-09T22:07:27.415Z,4.77
2019-05-09T22:12:24.005Z,4.55
2019-05-09T22:14:52.515Z,4.87
2019-05-09T22:19:50.539Z,4.20
2019-05-09T22:22:19.355Z,5.00
2019-05-09T22:27:16.122Z,4.95
2019-05-09T22:29:44.650Z,4.58
2019-05-09T22:34:41.519Z,4.33
2019-05-09T22:37:10.025Z,4.42
2019-05-09T22:39:38.613Z,4.28
2019-05-09T22:44:34.938Z,4.53
2019-05-09T22:49:31.536Z,5.00
2019-05-09T22:54:28.116Z,4.60
2019-05-09T22:56:56.628Z,4.62
2019-05-09T23:01:52.964Z,4.27
2019-05-09T23:06:49.632Z,5.40
2019-05-09T23:09:18.135Z,4.30
2019-05-09T23:11:46.741Z,4.90
2019-05-09T23:16:43.429Z,4.35
2019-05-09T23:21:40.169Z,4.20
2019-05-09T23:26:38.137Z,4.55
2019-05-09T23:29:06.985Z,4.60
2019-05-09T23:34:10.876Z,4.15
2019-05-09T23:36:39.812Z,4.50
2019-05-09T23:39:12.781Z,4.67
2019-05-09T23:41:41.649Z,4.40
2019-05-09T23:46:38.316Z,4.55
2019-05-09T23:51:42.403Z,4.87
2019-05-09T23:54:10.517Z,4.80
2019-05-09T23:56:57.162Z,4.25
2019-05-09T23:59:43.860Z,4.10
